Time;durP1;ratioP1;P1;durP2;ratioP2;P2;SDS_P1;SDS_P2;PMS_P1;PMS_P2;Temp;Humidity;BMP_temperature;BMP_pressure;BME280_temperature;BME280_humidity;BME280_pressure;Samples;Min_cycle;Max_cycle;Signal;HPM_P1;HPM_P2
2022/03/27 00:00:17;;;;;;;10.03;7.17;;;7.50;78.90;;;;;;5074114;28;20813;-44
2022/03/27 00:02:45;;;;;;;8.43;7.50;;;7.60;79.40;;;;;;5074583;28;20468;-44
2022/03/27 00:05:13;;;;;;;9.50;8.23;;;7.60;79.80;;;;;;5074550;28;20972;-44
2022/03/27 00:07:40;;;;;;;9.70;6.80;;;7.50;79.00;;;;;;5074397;28;20435;-45
2022/03/27 00:10:08;;;;;;;8.20;7.20;;;7.50;79.70;;;;;;5074377;28;20483;-43
2022/03/27 00:12:35;;;;;;;7.30;6.60;;;7.60;79.70;;;;;;5074636;28;20532;-44
2022/03/27 00:15:03;;;;;;;8.13;6.93;;;7.70;78.70;;;;;;5074321;28;20472;-43
2022/03/27 00:17:33;;;;;;;9.73;6.53;;;7.50;78.60;;;;;;5074138;28;20483;-43
2022/03/27 00:20:01;;;;;;;8.50;6.63;;;7.60;79.20;;;;;;5074204;28;20440;-44
2022/03/27 00:22:28;;;;;;;8.50;7.00;;;7.70;79.50;;;;;;5074578;28;20494;-43
2022/03/27 00:24:56;;;;;;;9.30;6.97;;;7.80;79.30;;;;;;5074278;28;20493;-44
2022/03/27 00:27:23;;;;;;;7.27;6.53;;;7.70;78.20;;;;;;5074139;28;21057;-43
2022/03/27 00:29:50;;;;;;;7.93;7.07;;;7.70;78.90;;;;;;5073562;28;20444;-44
2022/03/27 00:32:17;;;;;;;7.73;6.57;;;7.70;78.70;;;;;;5074000;28;20489;-44
2022/03/27 00:34:45;;;;;;;7.43;6.60;;;7.80;78.40;;;;;;5074082;28;20523;-44
2022/03/27 00:37:12;;;;;;;9.90;7.33;;;7.70;77.20;;;;;;5074013;28;20514;-44
2022/03/27 00:39:39;;;;;;;9.47;7.53;;;7.70;77.10;;;;;;5073735;28;20478;-43
2022/03/27 00:42:07;;;;;;;9.07;7.10;;;7.80;76.20;;;;;;5073548;28;20969;-43
2022/03/27 00:44:36;;;;;;;8.17;6.93;;;7.80;75.50;;;;;;5074057;28;20494;-43
2022/03/27 00:47:04;;;;;;;7.47;6.70;;;7.80;76.20;;;;;;5073841;28;20551;-45
2022/03/27 00:49:31;;;;;;;8.53;6.63;;;7.80;76.60;;;;;;5073696;28;20445;-44
2022/03/27 00:52:00;;;;;;;9.17;7.00;;;7.60;77.00;;;;;;5073689;28;20468;-43
2022/03/27 00:54:27;;;;;;;6.47;5.87;;;7.50;77.40;;;;;;5074345;28;20567;-43
2022/03/27 00:56:54;;;;;;;8.57;7.27;;;7.30;77.60;;;;;;5073947;28;20490;-44
2022/03/27 00:59:21;;;;;;;7.83;6.93;;;7.10;78.40;;;;;;5073485;28;20519;-43
2022/03/27 01:01:48;;;;;;;7.30;6.57;;;6.90;78.40;;;;;;5072878;28;20633;-44
2022/03/27 01:04:15;;;;;;;7.07;6.40;;;6.70;79.10;;;;;;5072958;28;20448;-42
2022/03/27 01:06:44;;;;;;;8.50;6.50;;;6.60;79.30;;;;;;5073326;28;20499;-45
2022/03/27 01:12:14;;;;;;;8.23;7.10;;;6.50;80.60;;;;;;5073381;28;20429;-43
2022/03/27 01:14:41;;;;;;;8.70;5.87;;;6.40;82.20;;;;;;5073381;28;20448;-43
2022/03/27 01:17:10;;;;;;;7.23;6.53;;;6.30;82.20;;;;;;5104784;22;20529;-45
2022/03/27 01:19:40;;;;;;;10.83;9.40;;;6.40;82.30;;;;;;5032748;28;21038;-42
2022/03/27 01:22:09;;;;;;;9.53;8.20;;;6.60;81.30;;;;;;5033088;28;20511;-45
2022/03/27 01:24:36;;;;;;;10.63;7.37;;;6.80;80.30;;;;;;5033594;28;20470;-42
2022/03/27 01:27:03;;;;;;;8.00;6.10;;;6.90;80.00;;;;;;5033363;28;20497;-44
2022/03/27 01:29:30;;;;;;;6.77;5.63;;;7.00;79.20;;;;;;5033217;28;20457;-42
2022/03/27 01:31:57;;;;;;;10.10;8.03;;;7.20;79.00;;;;;;5033189;28;20525;-42
2022/03/27 01:34:24;;;;;;;17.53;11.67;;;7.30;79.00;;;;;;5033431;28;20474;-44
2022/03/27 01:36:51;;;;;;;9.53;8.43;;;7.30;78.60;;;;;;5033009;28;20522;-42
2022/03/27 01:39:20;;;;;;;10.27;7.70;;;7.30;78.40;;;;;;5032769;28;21066;-42
2022/03/27 01:41:47;;;;;;;9.70;7.60;;;7.40;78.70;;;;;;5032650;28;20563;-42
2022/03/27 01:44:17;;;;;;;7.80;6.73;;;7.20;78.50;;;;;;5032950;28;20517;-41
2022/03/27 01:46:45;;;;;;;7.20;6.50;;;7.30;78.60;;;;;;5032879;28;20466;-43
2022/03/27 01:49:15;;;;;;;9.30;6.93;;;7.20;78.40;;;;;;5032396;28;20465;-42
2022/03/27 01:51:43;;;;;;;9.97;6.90;;;7.20;78.10;;;;;;5032538;28;20551;-42
2022/03/27 01:54:10;;;;;;;9.50;7.83;;;7.20;78.40;;;;;;5032665;28;20471;-42
2022/03/27 01:56:39;;;;;;;8.80;7.10;;;7.30;78.80;;;;;;5032353;28;20545;-42
2022/03/27 01:59:07;;;;;;;7.40;6.33;;;7.30;78.50;;;;;;5032443;28;20517;-44
2022/03/27 02:01:36;;;;;;;23.40;7.17;;;7.30;77.80;;;;;;5032744;28;20508;-42
2022/03/27 02:04:03;;;;;;;8.33;5.83;;;7.30;79.20;;;;;;5032322;28;20445;-42
2022/03/27 02:06:31;;;;;;;8.43;6.37;;;7.30;79.00;;;;;;5032479;28;20470;-42
2022/03/27 02:09:00;;;;;;;9.80;6.63;;;7.40;78.20;;;;;;5032003;28;20443;-42
2022/03/27 02:11:27;;;;;;;7.20;6.50;;;7.40;78.40;;;;;;5032145;28;20935;-42
2022/03/27 02:13:55;;;;;;;6.40;5.80;;;7.30;78.50;;;;;;5032428;28;20526;-45
2022/03/27 02:16:23;;;;;;;6.60;6.00;;;7.20;78.70;;;;;;5032178;28;20561;-42
2022/03/27 02:18:50;;;;;;;9.97;6.27;;;7.20;79.30;;;;;;5032054;28;20921;-42
2022/03/27 02:21:17;;;;;;;6.70;5.73;;;6.90;78.70;;;;;;5031948;28;20862;-42
2022/03/27 02:23:44;;;;;;;6.57;5.97;;;6.60;79.00;;;;;;5032001;28;20970;-42
2022/03/27 02:26:11;;;;;;;5.83;5.23;;;6.50;79.80;;;;;;5031991;28;20492;-44
2022/03/27 02:28:39;;;;;;;8.60;6.90;;;6.60;80.50;;;;;;5031923;28;20598;-42
2022/03/27 02:31:08;;;;;;;6.97;6.33;;;6.80;80.40;;;;;;5031810;28;20533;-42
2022/03/27 02:33:35;;;;;;;6.23;5.60;;;6.70;79.50;;;;;;5032161;28;20473;-42
2022/03/27 02:36:02;;;;;;;7.80;6.20;;;6.80;78.90;;;;;;5031835;28;20469;-42
2022/03/27 02:38:29;;;;;;;8.33;6.43;;;6.70;79.00;;;;;;5031913;28;21075;-44
2022/03/27 02:40:56;;;;;;;10.63;6.40;;;6.80;79.70;;;;;;5031380;28;20485;-42
2022/03/27 02:43:23;;;;;;;7.73;5.83;;;6.40;79.90;;;;;;5031543;28;20477;-42
2022/03/27 02:45:51;;;;;;;8.40;6.60;;;6.10;81.10;;;;;;5031653;28;20477;-44
2022/03/27 02:48:19;;;;;;;9.17;6.30;;;6.10;81.80;;;;;;5031766;28;20774;-42
2022/03/27 02:50:47;;;;;;;7.20;6.20;;;6.00;81.00;;;;;;5031732;28;20533;-42
2022/03/27 02:53:14;;;;;;;10.60;7.00;;;6.00;81.10;;;;;;5031791;28;20482;-41
2022/03/27 02:55:41;;;;;;;5.67;5.17;;;5.80;81.20;;;;;;5031812;28;20473;-44
2022/03/27 02:58:09;;;;;;;8.47;6.40;;;5.70;81.50;;;;;;5031534;28;20476;-42
2022/03/27 03:00:36;;;;;;;7.43;5.40;;;5.60;82.10;;;;;;5031456;28;20474;-42
2022/03/27 03:03:03;;;;;;;8.47;5.70;;;5.50;82.70;;;;;;5031166;28;20485;-44
2022/03/27 03:05:32;;;;;;;6.80;6.00;;;5.40;82.60;;;;;;5031674;28;20529;-41
2022/03/27 03:08:00;;;;;;;8.10;6.87;;;5.40;82.60;;;;;;5031457;28;20545;-42
2022/03/27 03:10:29;;;;;;;7.90;5.97;;;5.70;83.20;;;;;;5031107;28;20450;-46
2022/03/27 03:12:56;;;;;;;7.23;6.53;;;5.90;82.70;;;;;;5031460;28;20454;-45
2022/03/27 03:15:24;;;;;;;8.27;6.73;;;5.90;81.90;;;;;;5031336;28;20454;-42
2022/03/27 03:17:51;;;;;;;9.10;6.00;;;6.00;82.40;;;;;;5031108;28;20467;-41
2022/03/27 03:20:19;;;;;;;7.53;6.03;;;6.20;82.10;;;;;;5030916;28;21058;-46
2022/03/27 03:22:48;;;;;;;6.23;5.43;;;6.30;81.30;;;;;;5031356;28;20955;-42
2022/03/27 03:25:15;;;;;;;7.20;6.37;;;6.50;81.00;;;;;;5033146;28;20565;-42
2022/03/27 03:27:42;;;;;;;7.83;5.60;;;6.50;79.90;;;;;;5035316;28;20967;-43
2022/03/27 03:30:10;;;;;;;10.17;6.33;;;6.40;78.90;;;;;;5034972;28;20874;-49
2022/03/27 03:32:37;;;;;;;7.13;6.07;;;6.50;78.40;;;;;;5035242;28;20450;-44
2022/03/27 03:35:05;;;;;;;15.00;11.90;;;6.50;77.90;;;;;;5035627;28;20446;-42
2022/03/27 03:37:33;;;;;;;9.93;8.07;;;6.60;77.90;;;;;;5035338;28;20553;-42
2022/03/27 03:40:02;;;;;;;6.67;6.07;;;6.70;77.70;;;;;;5034883;28;20565;-42
2022/03/27 03:42:29;;;;;;;9.13;6.30;;;6.70;77.80;;;;;;5034984;28;20485;-45
2022/03/27 03:44:56;;;;;;;6.97;6.27;;;6.70;77.50;;;;;;5035405;28;20478;-42
2022/03/27 03:47:24;;;;;;;7.93;6.60;;;6.70;78.20;;;;;;5034958;28;20536;-42
2022/03/27 03:49:51;;;;;;;8.73;5.93;;;6.70;78.20;;;;;;5034746;28;20470;-42
2022/03/27 03:52:18;;;;;;;6.60;5.50;;;6.50;78.10;;;;;;5035084;28;20528;-44
2022/03/27 03:54:45;;;;;;;8.23;6.07;;;6.30;78.80;;;;;;5034857;28;20446;-42
2022/03/27 03:57:13;;;;;;;9.03;6.47;;;6.20;79.90;;;;;;5034955;28;20525;-42
2022/03/27 03:59:41;;;;;;;8.60;6.10;;;6.20;80.20;;;;;;5034536;28;20549;-42
2022/03/27 04:02:09;;;;;;;7.40;6.10;;;6.40;79.60;;;;;;5034894;28;20450;-42
2022/03/27 04:04:38;;;;;;;7.80;6.30;;;6.30;78.60;;;;;;5034249;28;20456;-42
2022/03/27 04:07:05;;;;;;;9.27;6.83;;;5.90;78.80;;;;;;5034676;28;20480;-42
2022/03/27 04:09:32;;;;;;;9.20;6.60;;;5.60;80.00;;;;;;5034685;28;20521;-42
2022/03/27 04:11:59;;;;;;;6.67;6.00;;;5.50;80.40;;;;;;5034642;28;20478;-44
2022/03/27 04:14:29;;;;;;;6.70;5.80;;;5.50;80.60;;;;;;5034734;28;20483;-42
2022/03/27 04:16:56;;;;;;;6.73;5.87;;;5.60;80.30;;;;;;5034666;28;20557;-46
2022/03/27 04:19:24;;;;;;;9.70;7.40;;;5.80;80.40;;;;;;5033987;28;20521;-42
2022/03/27 04:21:51;;;;;;;8.60;7.40;;;5.80;80.60;;;;;;5034263;28;20513;-42
2022/03/27 04:24:18;;;;;;;9.27;7.80;;;6.00;80.40;;;;;;5034439;28;20878;-42
2022/03/27 04:26:44;;;;;;;9.67;7.37;;;6.10;79.90;;;;;;5034324;28;20548;-42
2022/03/27 04:29:11;;;;;;;6.70;5.97;;;6.30;79.40;;;;;;5033829;28;20836;-42
2022/03/27 04:31:41;;;;;;;11.90;7.60;;;6.30;78.60;;;;;;5034199;28;20485;-45
2022/03/27 04:34:08;;;;;;;11.97;8.40;;;6.20;78.50;;;;;;5034253;28;20457;-42
2022/03/27 04:36:35;;;;;;;13.00;8.30;;;6.20;79.30;;;;;;5033935;28;20498;-45
2022/03/27 04:39:02;;;;;;;8.40;6.50;;;6.10;79.50;;;;;;5033764;28;20555;-42
2022/03/27 04:41:29;;;;;;;7.37;5.90;;;6.20;79.80;;;;;;5034293;28;20517;-46
2022/03/27 04:43:56;;;;;;;8.77;7.00;;;6.20;78.90;;;;;;5034108;28;20947;-42
2022/03/27 04:46:23;;;;;;;18.20;12.17;;;6.00;78.80;;;;;;5033968;28;20496;-43
2022/03/27 04:48:51;;;;;;;10.53;9.43;;;6.00;78.70;;;;;;5033798;28;20898;-43
2022/03/27 04:51:18;;;;;;;10.00;7.30;;;5.80;78.90;;;;;;5033548;28;20525;-42
2022/03/27 04:53:45;;;;;;;10.37;8.60;;;5.70;79.20;;;;;;5033468;28;20474;-42
2022/03/27 04:56:12;;;;;;;7.67;6.30;;;5.50;79.70;;;;;;5033657;28;20560;-42
2022/03/27 04:58:39;;;;;;;9.57;6.90;;;5.30;80.90;;;;;;5033851;28;20534;-42
2022/03/27 05:01:05;;;;;;;7.23;5.97;;;5.10;82.00;;;;;;5033669;28;20486;-42
2022/03/27 05:03:32;;;;;;;9.60;8.07;;;5.40;82.10;;;;;;5033457;28;20478;-46
2022/03/27 05:06:01;;;;;;;11.60;10.40;;;5.60;82.20;;;;;;5033732;28;20481;-41
2022/03/27 05:08:28;;;;;;;11.83;8.67;;;5.70;81.60;;;;;;5033352;28;20866;-43
2022/03/27 05:10:55;;;;;;;10.50;7.30;;;5.80;80.70;;;;;;5033208;28;20951;-42
2022/03/27 05:13:22;;;;;;;8.00;6.90;;;5.90;80.60;;;;;;5033186;28;20470;-42
2022/03/27 05:15:50;;;;;;;9.93;7.60;;;6.00;80.30;;;;;;5033161;28;20481;-42
2022/03/27 05:18:17;;;;;;;9.93;8.70;;;5.80;79.80;;;;;;5033383;28;20789;-42
2022/03/27 05:20:46;;;;;;;9.50;7.47;;;5.70;80.30;;;;;;5032858;28;20478;-42
2022/03/27 05:23:14;;;;;;;15.57;12.43;;;5.50;80.60;;;;;;5033464;28;20450;-42
2022/03/27 05:25:42;;;;;;;13.57;11.23;;;5.60;81.20;;;;;;5033224;28;20533;-42
2022/03/27 05:28:10;;;;;;;13.67;11.17;;;5.70;81.20;;;;;;5033210;28;21017;-41
2022/03/27 05:30:37;;;;;;;14.50;10.80;;;5.70;80.60;;;;;;5032688;28;20944;-42
2022/03/27 05:33:05;;;;;;;9.67;8.67;;;5.80;80.60;;;;;;5032962;28;20883;-43
2022/03/27 05:35:32;;;;;;;8.80;7.47;;;5.80;80.60;;;;;;5033006;28;20973;-42
2022/03/27 05:37:59;;;;;;;7.83;7.13;;;5.80;80.30;;;;;;5033146;28;20498;-42
2022/03/27 05:40:28;;;;;;;11.03;6.67;;;5.80;80.00;;;;;;5032640;28;20484;-42
2022/03/27 05:42:56;;;;;;;13.40;11.57;;;5.90;79.50;;;;;;5032935;28;20442;-43
2022/03/27 05:45:25;;;;;;;11.23;7.43;;;5.70;80.20;;;;;;5032789;28;20478;-44
2022/03/27 05:47:52;;;;;;;11.43;10.10;;;5.70;81.00;;;;;;5032102;28;20551;-42
2022/03/27 05:50:22;;;;;;;28.17;17.93;;;5.80;81.50;;;;;;5032415;28;20473;-43
2022/03/27 05:52:50;;;;;;;20.77;13.13;;;5.80;81.20;;;;;;5032730;28;20871;-42
2022/03/27 05:55:17;;;;;;;40.83;27.77;;;5.80;81.00;;;;;;5032722;28;20438;-43
2022/03/27 05:57:45;;;;;;;15.03;11.90;;;5.80;80.60;;;;;;5032574;28;20466;-44
2022/03/27 06:00:16;;;;;;;12.40;10.17;;;5.70;80.60;;;;;;5032137;28;20916;-44
2022/03/27 06:02:43;;;;;;;14.30;11.53;;;5.70;81.00;;;;;;5032225;28;20456;-42
2022/03/27 06:05:10;;;;;;;17.50;11.20;;;5.80;81.90;;;;;;5032353;28;20625;-42
2022/03/27 06:07:44;;;;;;;8.43;7.60;;;5.80;81.70;;;;;;5032062;28;20545;-41
2022/03/27 06:10:12;;;;;;;10.43;7.30;;;5.60;81.30;;;;;;5032149;28;20466;-42
2022/03/27 06:12:40;;;;;;;8.30;6.90;;;5.50;82.50;;;;;;5031792;28;20480;-44
2022/03/27 06:15:09;;;;;;;11.43;8.77;;;5.60;82.90;;;;;;5032059;28;20442;-46
2022/03/27 06:17:40;;;;;;;11.50;10.20;;;5.70;82.70;;;;;;5031720;28;20532;-42
2022/03/27 06:20:09;;;;;;;13.10;10.67;;;5.80;82.40;;;;;;5031957;28;20482;-43
2022/03/27 06:22:37;;;;;;;14.53;10.10;;;5.80;82.60;;;;;;5032399;28;20485;-42
2022/03/27 06:25:05;;;;;;;11.30;8.50;;;5.80;82.60;;;;;;5032106;28;20478;-42
2022/03/27 06:27:31;;;;;;;7.73;6.90;;;5.80;82.40;;;;;;5031877;28;20498;-46
2022/03/27 06:29:58;;;;;;;8.33;7.27;;;5.80;81.80;;;;;;5031707;28;20843;-42
2022/03/27 06:32:27;;;;;;;8.97;7.40;;;5.80;82.00;;;;;;5032131;28;20473;-42
2022/03/27 06:34:57;;;;;;;8.70;6.60;;;5.80;82.30;;;;;;5032201;28;20445;-41
2022/03/27 06:37:24;;;;;;;8.60;7.17;;;5.80;82.70;;;;;;5032179;28;20458;-42
2022/03/27 06:39:51;;;;;;;7.23;6.50;;;5.90;82.80;;;;;;5031496;28;20560;-42
2022/03/27 06:42:18;;;;;;;11.07;8.03;;;6.00;83.00;;;;;;5031507;28;20466;-42
2022/03/27 06:44:45;;;;;;;9.50;7.20;;;6.10;83.10;;;;;;5030321;28;20868;-42
2022/03/27 06:47:13;;;;;;;10.97;8.10;;;6.10;83.60;;;;;;5031375;28;20498;-42
2022/03/27 06:49:41;;;;;;;8.30;7.43;;;6.10;83.00;;;;;;5031574;28;20498;-41
2022/03/27 06:52:08;;;;;;;7.37;6.67;;;6.10;83.20;;;;;;5031665;28;20450;-42
2022/03/27 06:54:35;;;;;;;8.73;7.73;;;6.00;82.70;;;;;;5031677;28;20875;-45
2022/03/27 06:57:03;;;;;;;6.73;5.90;;;5.80;81.70;;;;;;5031548;28;20914;-42
2022/03/27 07:03:01;;;;;;;8.77;7.43;;;5.90;80.80;;;;;;5030196;28;20482;-46
2022/03/27 07:05:03;;;;;;;9.57;7.30;;;6.00;84.10;;;;;;5030976;28;20429;-42
2022/03/27 07:07:30;;;;;;;8.97;6.60;;;6.10;83.40;;;;;;5031585;28;20466;-42
2022/03/27 07:09:57;;;;;;;14.50;8.17;;;6.00;82.80;;;;;;5031362;28;20469;-42
2022/03/27 07:12:25;;;;;;;8.23;7.30;;;6.00;83.30;;;;;;5031393;28;20492;-46
2022/03/27 07:14:52;;;;;;;10.90;7.00;;;6.10;84.00;;;;;;5031227;28;20438;-42
2022/03/27 07:17:19;;;;;;;7.50;6.50;;;6.10;83.70;;;;;;5093920;23;20491;-44
2022/03/27 07:19:46;;;;;;;7.77;6.67;;;6.20;83.70;;;;;;5050393;28;20932;-44
2022/03/27 07:22:15;;;;;;;8.87;6.90;;;6.10;84.00;;;;;;5051192;28;20981;-48
2022/03/27 07:24:43;;;;;;;9.90;7.93;;;5.80;84.60;;;;;;5050696;28;20442;-43
2022/03/27 07:27:10;;;;;;;9.87;7.10;;;5.60;85.10;;;;;;5051703;28;20493;-45
2022/03/27 07:29:37;;;;;;;9.57;7.57;;;5.60;85.60;;;;;;5050739;28;20485;-43
2022/03/27 07:32:06;;;;;;;7.60;6.90;;;5.70;86.30;;;;;;5051337;28;20441;-44
2022/03/27 07:34:33;;;;;;;9.10;7.87;;;5.90;86.30;;;;;;5050943;28;20962;-45
2022/03/27 07:37:00;;;;;;;8.10;7.30;;;6.00;86.60;;;;;;5050892;28;20473;-44
2022/03/27 07:39:28;;;;;;;7.43;6.63;;;6.20;85.90;;;;;;5050758;28;20878;-44
2022/03/27 07:41:55;;;;;;;7.77;6.90;;;6.30;85.40;;;;;;5050991;28;20474;-44
2022/03/27 07:44:22;;;;;;;8.83;6.90;;;6.30;86.10;;;;;;5051393;28;20477;-44
2022/03/27 07:46:50;;;;;;;12.10;10.43;;;6.40;86.10;;;;;;5051004;28;20891;-45
2022/03/27 07:49:19;;;;;;;16.23;13.23;;;6.60;85.60;;;;;;5050685;28;20445;-44
2022/03/27 07:51:45;;;;;;;19.27;17.20;;;6.60;86.00;;;;;;5050960;28;20537;-44
2022/03/27 07:54:12;;;;;;;16.33;13.50;;;6.70;86.50;;;;;;5050929;28;20476;-44
2022/03/27 07:56:41;;;;;;;13.47;9.30;;;6.80;85.20;;;;;;5051086;28;20500;-48
2022/03/27 07:59:07;;;;;;;12.80;8.93;;;6.80;85.90;;;;;;5050620;28;20473;-46
2022/03/27 08:01:35;;;;;;;10.43;8.57;;;6.90;86.20;;;;;;5050952;28;20561;-44
2022/03/27 08:04:02;;;;;;;11.57;8.87;;;7.10;85.80;;;;;;5050310;28;20445;-45
2022/03/27 08:06:29;;;;;;;11.80;9.63;;;7.20;86.70;;;;;;5050940;28;20485;-44
2022/03/27 08:08:56;;;;;;;10.20;8.80;;;7.30;87.00;;;;;;5050559;28;20441;-46
2022/03/27 08:11:23;;;;;;;10.30;8.57;;;7.30;87.60;;;;;;5052728;28;20441;-44
2022/03/27 08:13:52;;;;;;;11.30;9.47;;;7.30;88.00;;;;;;5054744;28;20457;-48
2022/03/27 08:16:18;;;;;;;9.50;8.50;;;7.40;87.60;;;;;;5054149;28;20908;-48
2022/03/27 08:18:45;;;;;;;9.17;8.00;;;7.40;86.70;;;;;;5054196;28;20511;-43
2022/03/27 08:21:12;;;;;;;10.33;7.83;;;7.30;85.80;;;;;;5054175;28;20513;-44
2022/03/27 08:23:39;;;;;;;8.13;6.70;;;7.50;85.10;;;;;;5053716;28;20881;-45
2022/03/27 08:28:52;;;;;;;8.30;7.03;;;7.60;79.80;;;;;;5054225;28;20417;-43
2022/03/27 08:31:19;;;;;;;12.53;10.20;;;7.80;78.20;;;;;;5054217;28;20473;-44
2022/03/27 08:33:46;;;;;;;9.23;8.20;;;7.90;78.00;;;;;;5054254;28;20472;-45
2022/03/27 08:36:13;;;;;;;7.80;7.00;;;8.00;78.50;;;;;;5054010;28;20528;-44
2022/03/27 08:38:40;;;;;;;7.83;6.90;;;8.10;78.10;;;;;;5053870;28;20552;-44
2022/03/27 08:41:09;;;;;;;13.80;9.10;;;8.10;77.70;;;;;;5052252;28;20515;-46
2022/03/27 08:43:37;;;;;;;9.17;8.27;;;8.20;77.10;;;;;;5053008;28;20446;-47
2022/03/27 08:46:05;;;;;;;9.50;7.53;;;8.30;76.90;;;;;;5053034;28;20792;-44
2022/03/27 08:48:33;;;;;;;7.10;6.37;;;8.40;75.00;;;;;;5053881;28;20556;-45
2022/03/27 08:51:08;;;;;;;9.97;7.20;;;8.50;71.90;;;;;;5053381;28;20452;-50
2022/03/27 08:53:41;;;;;;;8.97;7.47;;;8.60;72.70;;;;;;5053873;28;20538;-48
2022/03/27 08:56:08;;;;;;;9.10;7.80;;;8.70;70.70;;;;;;5053806;28;20535;-44
2022/03/27 08:58:37;;;;;;;9.90;8.90;;;8.90;73.00;;;;;;5053695;28;20492;-47
2022/03/27 09:01:07;;;;;;;9.60;7.50;;;9.00;69.60;;;;;;5053436;28;20481;-44
2022/03/27 09:03:34;;;;;;;8.47;6.43;;;9.20;69.20;;;;;;5052920;28;20487;-45
2022/03/27 09:06:02;;;;;;;9.30;7.43;;;9.40;70.40;;;;;;5053552;28;20958;-45
2022/03/27 09:08:30;;;;;;;9.23;7.37;;;9.60;70.20;;;;;;5053441;28;20453;-44
2022/03/27 09:10:57;;;;;;;12.80;7.70;;;9.80;67.70;;;;;;5053163;28;20524;-44
2022/03/27 09:13:25;;;;;;;8.77;7.43;;;10.00;67.50;;;;;;5053455;28;20476;-48
2022/03/27 09:15:59;;;;;;;8.97;7.33;;;10.10;69.60;;;;;;5053676;28;20476;-44
2022/03/27 09:18:42;;;;;;;8.90;8.00;;;10.30;68.00;;;;;;5052982;28;20544;-48
2022/03/27 09:21:09;;;;;;;8.13;7.13;;;10.60;66.70;;;;;;5052956;28;20508;-44
2022/03/27 09:23:36;;;;;;;7.70;6.90;;;10.70;65.20;;;;;;5052360;28;20483;-44
2022/03/27 09:26:05;;;;;;;8.80;7.33;;;10.90;64.60;;;;;;5053533;28;20488;-44
2022/03/27 09:28:37;;;;;;;9.33;7.40;;;11.10;63.60;;;;;;5053000;28;20829;-44
2022/03/27 09:31:21;;;;;;;9.20;7.27;;;11.30;62.10;;;;;;5053094;28;20483;-47
2022/03/27 09:33:51;;;;;;;8.73;7.30;;;11.60;63.10;;;;;;5053208;28;20491;-44
2022/03/27 09:36:21;;;;;;;8.77;7.87;;;11.60;60.20;;;;;;5053125;28;20473;-44
2022/03/27 09:39:00;;;;;;;7.90;7.20;;;11.70;59.90;;;;;;5052766;28;20528;-44
2022/03/27 09:41:32;;;;;;;8.77;7.37;;;12.00;59.20;;;;;;5052617;28;20568;-45
2022/03/27 09:44:01;;;;;;;9.40;7.63;;;12.30;58.70;;;;;;5052746;28;20536;-44
2022/03/27 09:46:28;;;;;;;9.70;8.70;;;12.50;59.00;;;;;;5052881;28;20444;-48
2022/03/27 09:48:59;;;;;;;12.73;7.73;;;12.60;60.00;;;;;;5052687;28;20477;-43
2022/03/27 09:51:26;;;;;;;12.30;7.80;;;12.60;58.60;;;;;;5052770;28;20445;-48
2022/03/27 09:53:58;;;;;;;9.00;8.03;;;12.90;57.90;;;;;;5052663;28;20536;-45
2022/03/27 09:56:29;;;;;;;8.70;7.67;;;13.10;57.30;;;;;;5052571;28;20430;-48
2022/03/27 09:58:57;;;;;;;9.70;8.30;;;13.20;57.80;;;;;;5052610;28;20855;-44
2022/03/27 10:01:25;;;;;;;10.10;7.50;;;13.30;57.60;;;;;;5052379;28;20481;-45
2022/03/27 10:04:02;;;;;;;9.77;8.07;;;13.50;56.50;;;;;;5052231;28;20935;-44
2022/03/27 10:06:33;;;;;;;10.87;8.07;;;13.70;57.20;;;;;;5052805;28;20441;-44
2022/03/27 10:09:01;;;;;;;10.17;8.73;;;13.80;57.30;;;;;;5052011;28;20477;-44
2022/03/27 10:11:29;;;;;;;11.10;7.83;;;13.90;56.40;;;;;;5052171;28;20951;-44
2022/03/27 10:13:57;;;;;;;9.97;7.70;;;13.90;57.20;;;;;;5052189;28;20803;-44
2022/03/27 10:16:26;;;;;;;9.53;7.90;;;14.00;57.50;;;;;;5052031;28;20484;-43
2022/03/27 10:18:58;;;;;;;9.97;8.00;;;14.00;57.60;;;;;;5052204;28;20453;-43
2022/03/27 10:21:27;;;;;;;8.50;7.70;;;14.00;57.10;;;;;;5052243;28;20528;-44
2022/03/27 10:24:00;;;;;;;9.30;8.27;;;14.10;55.70;;;;;;5052003;28;20495;-44
2022/03/27 10:26:27;;;;;;;7.80;7.00;;;14.20;56.00;;;;;;5052125;28;20484;-46
2022/03/27 10:28:55;;;;;;;8.90;8.00;;;14.30;55.70;;;;;;5051723;28;20493;-44
2022/03/27 10:31:23;;;;;;;11.60;8.37;;;14.40;56.50;;;;;;5051793;28;20473;-44
2022/03/27 10:33:53;;;;;;;8.60;7.80;;;14.60;56.20;;;;;;5051979;28;20442;-44
2022/03/27 10:36:27;;;;;;;9.23;8.03;;;14.70;56.20;;;;;;5051815;28;20785;-44
2022/03/27 10:39:05;;;;;;;8.83;7.73;;;14.80;55.80;;;;;;5051652;28;20444;-44
2022/03/27 10:41:36;;;;;;;11.53;8.10;;;14.90;54.20;;;;;;5051416;28;20516;-47
2022/03/27 10:44:11;;;;;;;11.23;8.17;;;14.90;55.90;;;;;;5051558;28;20969;-45
2022/03/27 10:46:39;;;;;;;8.37;7.47;;;15.00;55.90;;;;;;5051727;28;20507;-44
2022/03/27 10:49:13;;;;;;;10.07;7.83;;;15.20;55.60;;;;;;5051519;28;20520;-44
2022/03/27 10:51:42;;;;;;;8.97;7.90;;;15.30;56.30;;;;;;5051417;28;20523;-46
2022/03/27 10:54:12;;;;;;;10.83;8.30;;;15.40;55.60;;;;;;5051430;28;20480;-44
2022/03/27 10:56:42;;;;;;;8.70;7.80;;;15.50;54.20;;;;;;5051464;28;20982;-44
2022/03/27 10:59:11;;;;;;;11.80;8.50;;;15.50;54.70;;;;;;5051275;28;20495;-44
2022/03/27 11:01:41;;;;;;;7.80;7.10;;;15.60;54.10;;;;;;5051509;28;21201;-44
2022/03/27 11:04:09;;;;;;;9.80;7.83;;;15.60;52.60;;;;;;5050828;28;20961;-44
2022/03/27 11:06:38;;;;;;;10.20;8.47;;;15.60;53.00;;;;;;5051497;28;20497;-44
2022/03/27 11:09:07;;;;;;;9.13;8.23;;;15.40;54.20;;;;;;5051247;28;20477;-44
2022/03/27 11:12:03;;;;;;;10.20;8.20;;;15.60;56.70;;;;;;5051504;28;20516;-44
2022/03/27 11:15:00;;;;;;;14.73;8.97;;;15.70;54.80;;;;;;5051398;28;20996;-44
2022/03/27 11:17:49;;;;;;;8.17;7.37;;;15.70;55.90;;;;;;5051298;28;20444;-44
2022/03/27 11:20:52;;;;;;;9.90;8.30;;;15.70;56.20;;;;;;5051023;28;20456;-44
2022/03/27 11:23:31;;;;;;;10.07;7.70;;;15.70;56.10;;;;;;5051221;28;20520;-44
2022/03/27 11:25:58;;;;;;;9.70;8.43;;;15.70;57.60;;;;;;5051245;28;20981;-44
2022/03/27 11:28:44;;;;;;;10.80;7.67;;;15.90;58.60;;;;;;5051114;28;20493;-44
2022/03/27 11:31:26;;;;;;;8.53;7.63;;;16.10;53.70;;;;;;5051159;28;20472;-44
2022/03/27 11:34:15;;;;;;;8.87;7.30;;;16.10;53.10;;;;;;5051416;28;20456;-46
2022/03/27 11:36:44;;;;;;;10.87;7.90;;;16.10;53.40;;;;;;5051114;28;20548;-45
2022/03/27 11:39:12;;;;;;;12.93;8.80;;;16.10;55.20;;;;;;5051201;28;20477;-44
2022/03/27 11:41:43;;;;;;;9.23;8.20;;;16.20;55.50;;;;;;5050963;28;20487;-46
2022/03/27 11:47:23;;;;;;;7.97;7.17;;;16.50;53.30;;;;;;5047476;28;20460;-47
2022/03/27 11:49:51;;;;;;;10.30;8.10;;;16.40;51.50;;;;;;5054626;28;20441;-44
2022/03/27 11:52:21;;;;;;;8.60;7.73;;;16.50;50.70;;;;;;5054959;28;20977;-44
2022/03/27 11:54:48;;;;;;;8.53;7.50;;;16.50;51.30;;;;;;5055115;28;20488;-44
2022/03/27 11:57:16;;;;;;;8.90;8.00;;;16.70;51.70;;;;;;5055101;28;21033;-45
2022/03/27 11:59:49;;;;;;;8.70;7.90;;;16.70;50.40;;;;;;5054527;28;20444;-44
2022/03/27 12:02:18;;;;;;;8.13;7.33;;;16.80;51.80;;;;;;5054734;28;20567;-44
2022/03/27 12:04:53;;;;;;;8.23;7.30;;;17.00;53.50;;;;;;5054248;28;20479;-51
2022/03/27 12:07:21;;;;;;;9.00;7.20;;;17.10;50.10;;;;;;5054922;28;20460;-44
2022/03/27 12:09:57;;;;;;;8.67;7.63;;;17.10;50.20;;;;;;5054425;28;20481;-44
2022/03/27 12:12:24;;;;;;;8.50;7.70;;;17.30;47.40;;;;;;5054693;28;20476;-45
2022/03/27 12:14:56;;;;;;;10.43;7.30;;;17.30;46.30;;;;;;5054677;28;20469;-44
2022/03/27 12:17:26;;;;;;;9.53;6.90;;;17.30;49.20;;;;;;5054179;28;20480;-45
2022/03/27 12:20:00;;;;;;;8.90;7.23;;;17.40;48.90;;;;;;5054210;28;20452;-45
2022/03/27 12:22:35;;;;;;;9.73;7.70;;;17.50;47.80;;;;;;5054319;28;20566;-44
2022/03/27 12:25:03;;;;;;;20.30;8.70;;;17.50;47.70;;;;;;5054267;28;20440;-44
2022/03/27 12:30:15;;;;;;;9.57;7.37;;;17.60;46.60;;;;;;5053849;28;20468;-48
2022/03/27 12:32:44;;;;;;;8.27;7.43;;;17.60;46.90;;;;;;5054019;28;20516;-48
2022/03/27 12:35:11;;;;;;;16.40;8.70;;;17.60;44.70;;;;;;5053779;28;20469;-47
2022/03/27 12:37:44;;;;;;;11.10;7.57;;;17.70;46.30;;;;;;5051354;28;20492;-48
2022/03/27 12:40:12;;;;;;;9.67;7.23;;;17.70;44.60;;;;;;5051297;28;20470;-45
2022/03/27 12:42:43;;;;;;;9.30;7.57;;;17.80;44.60;;;;;;5052136;28;20504;-51
2022/03/27 12:45:13;;;;;;;10.77;7.77;;;17.80;45.30;;;;;;5052058;28;20446;-44
2022/03/27 12:47:43;;;;;;;8.10;7.30;;;17.90;46.80;;;;;;5053229;28;20982;-45
2022/03/27 12:50:12;;;;;;;9.60;7.87;;;17.90;45.70;;;;;;5053063;28;20474;-44
2022/03/27 12:52:53;;;;;;;9.83;7.90;;;18.10;46.30;;;;;;5053280;28;20440;-45
2022/03/27 12:55:20;;;;;;;8.13;7.33;;;18.10;44.80;;;;;;5052564;28;20916;-49
2022/03/27 12:57:52;;;;;;;8.67;7.70;;;18.10;43.30;;;;;;5051470;28;20470;-45
2022/03/27 13:00:21;;;;;;;10.00;8.60;;;18.10;43.80;;;;;;5050307;28;20497;-46
2022/03/27 13:02:50;;;;;;;8.63;7.70;;;18.10;43.90;;;;;;5049863;28;20509;-51
2022/03/27 13:05:27;;;;;;;9.30;8.40;;;18.10;46.30;;;;;;5050974;28;20480;-45
2022/03/27 13:07:55;;;;;;;8.67;7.77;;;18.30;46.60;;;;;;5051206;28;20508;-46
2022/03/27 13:10:23;;;;;;;8.20;7.37;;;18.20;44.80;;;;;;5051321;28;20480;-44
2022/03/27 13:13:01;;;;;;;11.10;7.87;;;18.20;45.30;;;;;;5051511;28;20922;-45